sensor_id;sensor_type;location;lat;lon;timestamp;pressure;altitude;pressure_sealevel;temperature;humidity
85140;BME280;75501;52.586;13.284;2024-03-17T00:00:22;101727.72;;;4.38;69.56
85140;BME280;75501;52.586;13.284;2024-03-17T00:02:49;101727.72;;;4.38;69.55
85140;BME280;75501;52.586;13.284;2024-03-17T00:05:17;101724.19;;;4.49;69.30
85140;BME280;75501;52.586;13.284;2024-03-17T00:07:44;101728.88;;;4.31;69.78
85140;BME280;75501;52.586;13.284;2024-03-17T00:10:11;101724.31;;;4.31;70.05
85140;BME280;75501;52.586;13.284;2024-03-17T00:12:38;101725.50;;;4.35;69.94
85140;BME280;75501;52.586;13.284;2024-03-17T00:15:05;101730.88;;;4.35;69.94
85140;BME280;75501;52.586;13.284;2024-03-17T00:17:33;101723.84;;;4.34;69.94
85140;BME280;75501;52.586;13.284;2024-03-17T00:20:00;101719.84;;;4.25;70.37
85140;BME280;75501;52.586;13.284;2024-03-17T00:22:35;101711.41;;;4.22;70.47
85140;BME280;75501;52.586;13.284;2024-03-17T00:25:06;101717.41;;;4.24;70.32
85140;BME280;75501;52.586;13.284;2024-03-17T00:27:34;101731.22;;;4.27;70.59
85140;BME280;75501;52.586;13.284;2024-03-17T00:30:05;101725.22;;;4.25;70.31
85140;BME280;75501;52.586;13.284;2024-03-17T00:32:38;101733.78;;;4.22;70.38
85140;BME280;75501;52.586;13.284;2024-03-17T00:35:06;101734.03;;;4.21;70.62
85140;BME280;75501;52.586;13.284;2024-03-17T00:37:35;101737.56;;;4.21;70.69
85140;BME280;75501;52.586;13.284;2024-03-17T00:40:02;101737.06;;;4.24;70.80
85140;BME280;75501;52.586;13.284;2024-03-17T00:42:32;101736.38;;;4.17;71.22
85140;BME280;75501;52.586;13.284;2024-03-17T00:44:58;101728.66;;;4.21;70.88
85140;BME280;75501;52.586;13.284;2024-03-17T00:47:25;101735.91;;;4.20;70.92
85140;BME280;75501;52.586;13.284;2024-03-17T00:49:51;101738.25;;;4.17;71.29
85140;BME280;75501;52.586;13.284;2024-03-17T00:52:18;101738.47;;;4.15;71.34
85140;BME280;75501;52.586;13.284;2024-03-17T00:54:47;101731.00;;;4.17;71.31
85140;BME280;75501;52.586;13.284;2024-03-17T00:57:15;101737.91;;;4.25;71.20
85140;BME280;75501;52.586;13.284;2024-03-17T00:59:41;101732.38;;;4.08;71.20
85140;BME280;75501;52.586;13.284;2024-03-17T01:02:10;101734.03;;;4.09;71.41
85140;BME280;75501;52.586;13.284;2024-03-17T01:04:38;101740.59;;;4.13;71.14
85140;BME280;75501;52.586;13.284;2024-03-17T01:07:05;101743.97;;;4.20;71.20
85140;BME280;75501;52.586;13.284;2024-03-17T01:09:33;101751.94;;;4.15;71.15
85140;BME280;75501;52.586;13.284;2024-03-17T01:12:00;101743.75;;;4.10;71.42
85140;BME280;75501;52.586;13.284;2024-03-17T01:14:28;101745.38;;;4.11;71.90
85140;BME280;75501;52.586;13.284;2024-03-17T01:16:56;101753.00;;;4.14;71.66
85140;BME280;75501;52.586;13.284;2024-03-17T01:19:23;101745.38;;;4.23;71.48
85140;BME280;75501;52.586;13.284;2024-03-17T01:21:51;101741.38;;;4.25;71.21
85140;BME280;75501;52.586;13.284;2024-03-17T01:24:18;101739.06;;;4.17;71.30
85140;BME280;75501;52.586;13.284;2024-03-17T01:26:45;101739.28;;;4.04;71.74
85140;BME280;75501;52.586;13.284;2024-03-17T01:29:12;101745.59;;;3.98;72.02
85140;BME280;75501;52.586;13.284;2024-03-17T01:31:39;101743.69;;;3.87;73.14
85140;BME280;75501;52.586;13.284;2024-03-17T01:34:06;101743.00;;;3.91;72.70
85140;BME280;75501;52.586;13.284;2024-03-17T01:36:33;101745.94;;;4.01;72.28
85140;BME280;75501;52.586;13.284;2024-03-17T01:38:59;101747.09;;;3.94;72.71
85140;BME280;75501;52.586;13.284;2024-03-17T01:41:28;101748.63;;;3.90;72.78
85140;BME280;75501;52.586;13.284;2024-03-17T01:43:54;101741.59;;;3.89;72.51
85140;BME280;75501;52.586;13.284;2024-03-17T01:46:25;101738.31;;;3.87;73.16
85140;BME280;75501;52.586;13.284;2024-03-17T01:48:53;101738.81;;;3.95;72.82
85140;BME280;75501;52.586;13.284;2024-03-17T01:51:21;101744.06;;;3.90;72.81
85140;BME280;75501;52.586;13.284;2024-03-17T01:53:48;101738.31;;;3.87;73.06
85140;BME280;75501;52.586;13.284;2024-03-17T01:56:16;101729.41;;;3.86;72.93
85140;BME280;75501;52.586;13.284;2024-03-17T01:58:44;101737.84;;;3.90;72.78
85140;BME280;75501;52.586;13.284;2024-03-17T02:01:11;101744.41;;;3.94;72.79
85140;BME280;75501;52.586;13.284;2024-03-17T02:03:41;101740.22;;;3.98;72.37
85140;BME280;75501;52.586;13.284;2024-03-17T02:06:09;101752.13;;;3.90;72.42
85140;BME280;75501;52.586;13.284;2024-03-17T02:08:50;101744.16;;;3.84;72.86
85140;BME280;75501;52.586;13.284;2024-03-17T02:11:24;101751.31;;;3.78;73.19
85140;BME280;75501;52.586;13.284;2024-03-17T02:13:52;101755.50;;;3.74;73.43
85140;BME280;75501;52.586;13.284;2024-03-17T02:16:20;101752.56;;;3.76;73.54
85140;BME280;75501;52.586;13.284;2024-03-17T02:18:47;101747.53;;;3.79;73.82
85140;BME280;75501;52.586;13.284;2024-03-17T02:21:15;101756.91;;;3.77;74.22
85140;BME280;75501;52.586;13.284;2024-03-17T02:23:44;101757.03;;;3.93;73.35
85140;BME280;75501;52.586;13.284;2024-03-17T02:26:10;101755.28;;;3.87;73.37
85140;BME280;75501;52.586;13.284;2024-03-17T02:28:38;101746.53;;;3.92;73.42
85140;BME280;75501;52.586;13.284;2024-03-17T02:31:07;101747.69;;;3.84;73.23
85140;BME280;75501;52.586;13.284;2024-03-17T02:33:36;101747.19;;;3.76;73.56
85140;BME280;75501;52.586;13.284;2024-03-17T02:36:04;101753.38;;;3.76;73.88
85140;BME280;75501;52.586;13.284;2024-03-17T02:38:33;101753.03;;;3.73;74.23
85140;BME280;75501;52.586;13.284;2024-03-17T02:41:20;101756.25;;;3.51;74.68
85140;BME280;75501;52.586;13.284;2024-03-17T02:43:47;101756.03;;;3.53;74.75
85140;BME280;75501;52.586;13.284;2024-03-17T02:46:16;101761.31;;;3.60;74.79
85140;BME280;75501;52.586;13.284;2024-03-17T02:48:45;101757.09;;;3.64;74.64
85140;BME280;75501;52.586;13.284;2024-03-17T02:51:19;101762.34;;;3.59;74.81
85140;BME280;75501;52.586;13.284;2024-03-17T02:53:48;101758.66;;;3.41;75.23
85140;BME280;75501;52.586;13.284;2024-03-17T02:56:17;101765.00;;;3.47;74.67
85140;BME280;75501;52.586;13.284;2024-03-17T02:58:47;101755.50;;;3.44;75.50
85140;BME280;75501;52.586;13.284;2024-03-17T03:01:14;101754.53;;;3.57;74.75
85140;BME280;75501;52.586;13.284;2024-03-17T03:03:41;101761.72;;;3.45;74.76
85140;BME280;75501;52.586;13.284;2024-03-17T03:06:09;101760.97;;;3.38;75.09
85140;BME280;75501;52.586;13.284;2024-03-17T03:08:38;101755.69;;;3.31;75.56
85140;BME280;75501;52.586;13.284;2024-03-17T03:11:07;101760.84;;;3.33;75.61
85140;BME280;75501;52.586;13.284;2024-03-17T03:13:37;101755.84;;;3.36;75.88
85140;BME280;75501;52.586;13.284;2024-03-17T03:16:07;101748.47;;;3.32;75.88
85140;BME280;75501;52.586;13.284;2024-03-17T03:18:36;101749.84;;;3.34;76.22
85140;BME280;75501;52.586;13.284;2024-03-17T03:21:04;101750.50;;;3.18;76.30
85140;BME280;75501;52.586;13.284;2024-03-17T03:23:32;101754.81;;;3.19;75.82
85140;BME280;75501;52.586;13.284;2024-03-17T03:26:01;101757.50;;;3.19;76.15
85140;BME280;75501;52.586;13.284;2024-03-17T03:28:31;101757.97;;;3.16;76.82
85140;BME280;75501;52.586;13.284;2024-03-17T03:31:00;101763.19;;;3.29;75.69
85140;BME280;75501;52.586;13.284;2024-03-17T03:33:29;101764.69;;;3.25;76.36
85140;BME280;75501;52.586;13.284;2024-03-17T03:35:56;101762.22;;;3.24;75.80
85140;BME280;75501;52.586;13.284;2024-03-17T03:38:23;101765.72;;;3.24;75.93
85140;BME280;75501;52.586;13.284;2024-03-17T03:40:50;101759.53;;;3.24;76.09
85140;BME280;75501;52.586;13.284;2024-03-17T03:43:18;101751.69;;;3.22;76.20
85140;BME280;75501;52.586;13.284;2024-03-17T03:45:45;101764.31;;;3.22;76.31
85140;BME280;75501;52.586;13.284;2024-03-17T03:48:12;101758.41;;;3.13;76.88
85140;BME280;75501;52.586;13.284;2024-03-17T03:50:41;101763.06;;;3.06;76.69
85140;BME280;75501;52.586;13.284;2024-03-17T03:53:09;101766.94;;;3.10;76.55
85140;BME280;75501;52.586;13.284;2024-03-17T03:55:37;101771.00;;;3.01;77.23
85140;BME280;75501;52.586;13.284;2024-03-17T03:58:04;101769.41;;;2.93;77.63
85140;BME280;75501;52.586;13.284;2024-03-17T04:00:31;101771.00;;;3.01;77.54
85140;BME280;75501;52.586;13.284;2024-03-17T04:02:59;101772.25;;;2.98;77.71
85140;BME280;75501;52.586;13.284;2024-03-17T04:05:27;101770.38;;;2.99;77.83
85140;BME280;75501;52.586;13.284;2024-03-17T04:07:56;101775.28;;;3.02;78.03
85140;BME280;75501;52.586;13.284;2024-03-17T04:10:24;101774.84;;;3.05;77.60
85140;BME280;75501;52.586;13.284;2024-03-17T04:12:51;101778.44;;;2.99;78.40
85140;BME280;75501;52.586;13.284;2024-03-17T04:15:19;101769.25;;;3.07;78.04
85140;BME280;75501;52.586;13.284;2024-03-17T04:17:46;101768.97;;;2.96;78.45
85140;BME280;75501;52.586;13.284;2024-03-17T04:20:13;101772.03;;;3.00;78.87
85140;BME280;75501;52.586;13.284;2024-03-17T04:22:41;101769.34;;;3.00;78.14
85140;BME280;75501;52.586;13.284;2024-03-17T04:25:11;101762.94;;;3.01;78.42
85140;BME280;75501;52.586;13.284;2024-03-17T04:27:39;101785.69;;;2.98;78.54
85140;BME280;75501;52.586;13.284;2024-03-17T04:30:07;101768.66;;;2.86;78.91
85140;BME280;75501;52.586;13.284;2024-03-17T04:32:37;101771.06;;;2.76;79.21
85140;BME280;75501;52.586;13.284;2024-03-17T04:35:05;101773.44;;;2.84;79.08
85140;BME280;75501;52.586;13.284;2024-03-17T04:37:32;101774.03;;;2.86;79.13
85140;BME280;75501;52.586;13.284;2024-03-17T04:40:06;101781.81;;;2.76;79.39
85140;BME280;75501;52.586;13.284;2024-03-17T04:42:37;101776.28;;;2.71;79.36
85140;BME280;75501;52.586;13.284;2024-03-17T04:45:07;101780.22;;;2.69;79.83
85140;BME280;75501;52.586;13.284;2024-03-17T04:47:36;101788.22;;;2.75;79.68
85140;BME280;75501;52.586;13.284;2024-03-17T04:50:05;101782.09;;;2.68;79.79
85140;BME280;75501;52.586;13.284;2024-03-17T04:52:32;101787.84;;;2.72;79.99
85140;BME280;75501;52.586;13.284;2024-03-17T04:55:00;101797.22;;;2.63;80.32
85140;BME280;75501;52.586;13.284;2024-03-17T04:57:27;101789.78;;;2.65;80.20
85140;BME280;75501;52.586;13.284;2024-03-17T04:59:56;101791.25;;;2.61;80.34
85140;BME280;75501;52.586;13.284;2024-03-17T05:02:23;101799.22;;;2.49;81.08
85140;BME280;75501;52.586;13.284;2024-03-17T05:04:50;101791.41;;;2.47;81.03
85140;BME280;75501;52.586;13.284;2024-03-17T05:07:19;101789.94;;;2.45;80.78
85140;BME280;75501;52.586;13.284;2024-03-17T05:09:46;101785.25;;;2.40;80.73
85140;BME280;75501;52.586;13.284;2024-03-17T05:12:13;101793.91;;;2.42;80.81
85140;BME280;75501;52.586;13.284;2024-03-17T05:14:41;101803.81;;;2.42;81.60
85140;BME280;75501;52.586;13.284;2024-03-17T05:17:09;101793.53;;;2.39;81.65
85140;BME280;75501;52.586;13.284;2024-03-17T05:19:37;101790.66;;;2.34;81.74
85140;BME280;75501;52.586;13.284;2024-03-17T05:22:04;101793.31;;;2.40;81.58
85140;BME280;75501;52.586;13.284;2024-03-17T05:24:31;101796.88;;;2.34;81.78
85140;BME280;75501;52.586;13.284;2024-03-17T05:26:58;101790.28;;;2.30;81.69
85140;BME280;75501;52.586;13.284;2024-03-17T05:29:25;101802.16;;;2.23;81.85
85140;BME280;75501;52.586;13.284;2024-03-17T05:31:53;101807.00;;;2.32;82.08
85140;BME280;75501;52.586;13.284;2024-03-17T05:34:21;101806.31;;;2.19;82.81
85140;BME280;75501;52.586;13.284;2024-03-17T05:36:50;101818.66;;;2.26;82.12
85140;BME280;75501;52.586;13.284;2024-03-17T05:39:17;101816.16;;;2.25;82.22
85140;BME280;75501;52.586;13.284;2024-03-17T05:41:45;101802.41;;;2.39;81.96
85140;BME280;75501;52.586;13.284;2024-03-17T05:44:14;101815.91;;;2.33;81.82
85140;BME280;75501;52.586;13.284;2024-03-17T05:46:41;101804.72;;;2.36;81.99
85140;BME280;75501;52.586;13.284;2024-03-17T05:49:08;101808.09;;;2.25;82.59
85140;BME280;75501;52.586;13.284;2024-03-17T05:51:37;101809.69;;;2.32;81.85
85140;BME280;75501;52.586;13.284;2024-03-17T05:54:05;101823.72;;;2.34;81.83
85140;BME280;75501;52.586;13.284;2024-03-17T05:56:32;101823.72;;;2.34;82.53
85140;BME280;75501;52.586;13.284;2024-03-17T05:59:00;101824.41;;;2.48;81.84
85140;BME280;75501;52.586;13.284;2024-03-17T06:01:28;101835.00;;;2.43;81.87
85140;BME280;75501;52.586;13.284;2024-03-17T06:03:55;101840.59;;;2.41;82.23
85140;BME280;75501;52.586;13.284;2024-03-17T06:06:22;101836.03;;;2.42;82.71
85140;BME280;75501;52.586;13.284;2024-03-17T06:08:53;101837.00;;;2.54;81.64
85140;BME280;75501;52.586;13.284;2024-03-17T06:11:20;101845.75;;;2.43;81.98
85140;BME280;75501;52.586;13.284;2024-03-17T06:13:47;101846.41;;;2.38;82.04
85140;BME280;75501;52.586;13.284;2024-03-17T06:16:16;101842.81;;;2.51;81.94
85140;BME280;75501;52.586;13.284;2024-03-17T06:18:45;101843.72;;;2.63;81.62
85140;BME280;75501;52.586;13.284;2024-03-17T06:21:16;101844.09;;;2.67;82.18
85140;BME280;75501;52.586;13.284;2024-03-17T06:23:43;101847.44;;;2.87;81.13
85140;BME280;75501;52.586;13.284;2024-03-17T06:26:13;101855.53;;;2.80;80.60
85140;BME280;75501;52.586;13.284;2024-03-17T06:28:40;101850.59;;;2.77;80.40
85140;BME280;75501;52.586;13.284;2024-03-17T06:31:09;101850.41;;;2.79;80.86
85140;BME280;75501;52.586;13.284;2024-03-17T06:33:36;101855.31;;;2.82;80.47
85140;BME280;75501;52.586;13.284;2024-03-17T06:36:04;101854.72;;;2.80;80.18
85140;BME280;75501;52.586;13.284;2024-03-17T06:38:32;101858.94;;;2.94;79.98
85140;BME280;75501;52.586;13.284;2024-03-17T06:40:59;101859.53;;;2.96;80.12
85140;BME280;75501;52.586;13.284;2024-03-17T06:43:28;101866.94;;;3.00;79.72
85140;BME280;75501;52.586;13.284;2024-03-17T06:45:56;101859.97;;;2.93;79.66
85140;BME280;75501;52.586;13.284;2024-03-17T06:48:26;101870.03;;;3.16;79.22
85140;BME280;75501;52.586;13.284;2024-03-17T06:50:54;101875.75;;;3.26;78.40
85140;BME280;75501;52.586;13.284;2024-03-17T06:53:22;101882.25;;;3.36;77.90
85140;BME280;75501;52.586;13.284;2024-03-17T06:55:53;101874.00;;;3.49;77.80
85140;BME280;75501;52.586;13.284;2024-03-17T06:58:21;101882.22;;;3.55;77.03
85140;BME280;75501;52.586;13.284;2024-03-17T07:00:54;101893.56;;;3.75;76.96
85140;BME280;75501;52.586;13.284;2024-03-17T07:03:23;101884.38;;;3.94;75.84
85140;BME280;75501;52.586;13.284;2024-03-17T07:05:53;101894.84;;;4.02;74.39
85140;BME280;75501;52.586;13.284;2024-03-17T07:08:21;101899.56;;;4.07;74.67
85140;BME280;75501;52.586;13.284;2024-03-17T07:10:58;101902.56;;;3.98;75.03
85140;BME280;75501;52.586;13.284;2024-03-17T07:13:29;101900.53;;;3.94;75.02
85140;BME280;75501;52.586;13.284;2024-03-17T07:15:59;101913.03;;;4.18;73.82
85140;BME280;75501;52.586;13.284;2024-03-17T07:18:27;101905.69;;;4.25;74.34
85140;BME280;75501;52.586;13.284;2024-03-17T07:20:58;101917.38;;;4.61;73.78
85140;BME280;75501;52.586;13.284;2024-03-17T07:23:26;101921.31;;;4.46;72.88
85140;BME280;75501;52.586;13.284;2024-03-17T07:25:54;101911.03;;;4.55;74.04
85140;BME280;75501;52.586;13.284;2024-03-17T07:28:23;101917.88;;;4.92;73.05
85140;BME280;75501;52.586;13.284;2024-03-17T07:30:51;101914.56;;;4.79;71.35
85140;BME280;75501;52.586;13.284;2024-03-17T07:33:21;101919.00;;;4.62;71.57
85140;BME280;75501;52.586;13.284;2024-03-17T07:35:50;101914.66;;;4.61;71.98
85140;BME280;75501;52.586;13.284;2024-03-17T07:38:19;101917.72;;;4.53;72.53
85140;BME280;75501;52.586;13.284;2024-03-17T07:40:57;101925.00;;;4.64;72.17
85140;BME280;75501;52.586;13.284;2024-03-17T07:43:25;101917.91;;;4.39;72.54
85140;BME280;75501;52.586;13.284;2024-03-17T07:45:57;101920.19;;;4.66;73.02
85140;BME280;75501;52.586;13.284;2024-03-17T07:48:27;101922.56;;;4.74;71.69
85140;BME280;75501;52.586;13.284;2024-03-17T07:50:56;101928.06;;;4.79;71.99
85140;BME280;75501;52.586;13.284;2024-03-17T07:53:23;101926.44;;;4.89;71.44
85140;BME280;75501;52.586;13.284;2024-03-17T07:55:59;101927.72;;;5.10;70.47
85140;BME280;75501;52.586;13.284;2024-03-17T07:58:27;101921.97;;;5.18;69.89
85140;BME280;75501;52.586;13.284;2024-03-17T08:00:57;101937.47;;;5.23;69.43
85140;BME280;75501;52.586;13.284;2024-03-17T08:03:27;101925.22;;;5.55;68.28
85140;BME280;75501;52.586;13.284;2024-03-17T08:05:55;101926.75;;;5.39;68.50
85140;BME280;75501;52.586;13.284;2024-03-17T08:08:22;101926.41;;;5.59;68.20
85140;BME280;75501;52.586;13.284;2024-03-17T08:10:50;101935.19;;;5.55;67.29
85140;BME280;75501;52.586;13.284;2024-03-17T08:13:18;101937.75;;;5.61;67.52
85140;BME280;75501;52.586;13.284;2024-03-17T08:15:46;101936.22;;;5.77;66.47
85140;BME280;75501;52.586;13.284;2024-03-17T08:18:21;101940.78;;;5.88;66.04
85140;BME280;75501;52.586;13.284;2024-03-17T08:20:49;101941.38;;;5.90;65.42
85140;BME280;75501;52.586;13.284;2024-03-17T08:23:16;101939.25;;;5.80;66.37
85140;BME280;75501;52.586;13.284;2024-03-17T08:25:51;101926.94;;;5.73;65.89
85140;BME280;75501;52.586;13.284;2024-03-17T08:28:19;101931.28;;;5.74;65.78
85140;BME280;75501;52.586;13.284;2024-03-17T08:30:51;101918.03;;;5.72;65.78
85140;BME280;75501;52.586;13.284;2024-03-17T08:33:19;101931.13;;;6.20;64.55
85140;BME280;75501;52.586;13.284;2024-03-17T08:35:55;101934.28;;;6.29;63.84
85140;BME280;75501;52.586;13.284;2024-03-17T08:38:23;101923.91;;;6.37;61.86
85140;BME280;75501;52.586;13.284;2024-03-17T08:40:51;101919.50;;;6.65;60.53
85140;BME280;75501;52.586;13.284;2024-03-17T08:43:20;101919.81;;;6.68;59.69
85140;BME280;75501;52.586;13.284;2024-03-17T08:45:54;101926.13;;;7.07;58.47
85140;BME280;75501;52.586;13.284;2024-03-17T08:48:24;101919.00;;;7.01;58.45
85140;BME280;75501;52.586;13.284;2024-03-17T08:50:52;101922.41;;;7.13;58.42
85140;BME280;75501;52.586;13.284;2024-03-17T08:53:21;101934.28;;;7.29;57.28
85140;BME280;75501;52.586;13.284;2024-03-17T08:55:49;101926.53;;;7.76;56.16
85140;BME280;75501;52.586;13.284;2024-03-17T08:58:16;101933.63;;;7.60;56.13
85140;BME280;75501;52.586;13.284;2024-03-17T09:00:44;101938.66;;;7.51;56.67
85140;BME280;75501;52.586;13.284;2024-03-17T09:03:11;101939.88;;;7.61;55.86
85140;BME280;75501;52.586;13.284;2024-03-17T09:05:39;101939.28;;;7.80;55.56
85140;BME280;75501;52.586;13.284;2024-03-17T09:08:16;101939.09;;;7.87;54.90
85140;BME280;75501;52.586;13.284;2024-03-17T09:10:47;101950.25;;;8.12;53.73
85140;BME280;75501;52.586;13.284;2024-03-17T09:13:16;101943.06;;;8.01;54.29
85140;BME280;75501;52.586;13.284;2024-03-17T09:15:51;101940.66;;;8.05;53.75
85140;BME280;75501;52.586;13.284;2024-03-17T09:18:20;101940.81;;;8.15;52.78
85140;BME280;75501;52.586;13.284;2024-03-17T09:20:58;101942.19;;;8.44;52.15
85140;BME280;75501;52.586;13.284;2024-03-17T09:23:26;101952.13;;;8.60;52.58
85140;BME280;75501;52.586;13.284;2024-03-17T09:25:57;101942.16;;;8.39;53.19
85140;BME280;75501;52.586;13.284;2024-03-17T09:28:26;101933.13;;;7.85;53.77
85140;BME280;75501;52.586;13.284;2024-03-17T09:30:54;101933.19;;;7.46;55.78
85140;BME280;75501;52.586;13.284;2024-03-17T09:33:23;101944.38;;;7.17;56.70
85140;BME280;75501;52.586;13.284;2024-03-17T09:35:55;101942.13;;;7.47;56.15
85140;BME280;75501;52.586;13.284;2024-03-17T09:38:23;101941.75;;;7.60;54.93
85140;BME280;75501;52.586;13.284;2024-03-17T09:40:51;101941.66;;;8.20;52.99
85140;BME280;75501;52.586;13.284;2024-03-17T09:43:21;101945.88;;;8.33;52.51
85140;BME280;75501;52.586;13.284;2024-03-17T09:45:49;101948.13;;;8.68;50.76
85140;BME280;75501;52.586;13.284;2024-03-17T09:48:20;101939.50;;;8.22;51.02
85140;BME280;75501;52.586;13.284;2024-03-17T09:50:50;101938.47;;;7.80;52.26
85140;BME280;75501;52.586;13.284;2024-03-17T09:53:23;101939.81;;;7.77;52.34
85140;BME280;75501;52.586;13.284;2024-03-17T09:55:52;101927.59;;;7.53;53.21
85140;BME280;75501;52.586;13.284;2024-03-17T09:58:24;101933.00;;;7.53;51.23
85140;BME280;75501;52.586;13.284;2024-03-17T10:00:51;101927.53;;;7.70;50.19
85140;BME280;75501;52.586;13.284;2024-03-17T10:03:40;101933.81;;;7.97;50.84
85140;BME280;75501;52.586;13.284;2024-03-17T10:06:10;101932.84;;;8.57;48.81
85140;BME280;75501;52.586;13.284;2024-03-17T10:08:45;101932.25;;;8.86;48.50
85140;BME280;75501;52.586;13.284;2024-03-17T10:11:15;101929.63;;;8.65;48.50
85140;BME280;75501;52.586;13.284;2024-03-17T10:13:44;101929.88;;;8.10;50.39
85140;BME280;75501;52.586;13.284;2024-03-17T10:16:21;101934.19;;;7.84;50.95
85140;BME280;75501;52.586;13.284;2024-03-17T10:18:51;101931.16;;;7.59;52.43
85140;BME280;75501;52.586;13.284;2024-03-17T10:21:31;101933.19;;;7.90;51.78
85140;BME280;75501;52.586;13.284;2024-03-17T10:24:06;101933.00;;;7.96;49.89
85140;BME280;75501;52.586;13.284;2024-03-17T10:26:42;101932.41;;;8.70;48.62
85140;BME280;75501;52.586;13.284;2024-03-17T10:29:20;101933.97;;;8.61;48.44
85140;BME280;75501;52.586;13.284;2024-03-17T10:31:50;101934.38;;;8.47;49.52
85140;BME280;75501;52.586;13.284;2024-03-17T10:34:18;101940.00;;;8.68;49.98
85140;BME280;75501;52.586;13.284;2024-03-17T10:36:50;101941.44;;;8.48;49.41
85140;BME280;75501;52.586;13.284;2024-03-17T10:39:24;101941.72;;;8.25;50.30
85140;BME280;75501;52.586;13.284;2024-03-17T10:41:57;101943.16;;;8.60;49.80
85140;BME280;75501;52.586;13.284;2024-03-17T10:44:27;101950.50;;;8.11;50.27
85140;BME280;75501;52.586;13.284;2024-03-17T10:46:57;101942.06;;;8.07;51.32
85140;BME280;75501;52.586;13.284;2024-03-17T10:49:29;101943.81;;;8.18;50.45
85140;BME280;75501;52.586;13.284;2024-03-17T10:51:59;101942.09;;;8.61;50.16
85140;BME280;75501;52.586;13.284;2024-03-17T10:54:28;101940.16;;;8.88;48.37
85140;BME280;75501;52.586;13.284;2024-03-17T10:56:56;101940.22;;;8.98;48.91
85140;BME280;75501;52.586;13.284;2024-03-17T10:59:38;101938.06;;;8.36;48.96
85140;BME280;75501;52.586;13.284;2024-03-17T11:02:20;101938.00;;;7.83;50.19
85140;BME280;75501;52.586;13.284;2024-03-17T11:04:52;101945.66;;;7.69;51.78
85140;BME280;75501;52.586;13.284;2024-03-17T11:07:22;101936.06;;;7.83;51.47
85140;BME280;75501;52.586;13.284;2024-03-17T11:09:51;101939.41;;;8.12;48.61
85140;BME280;75501;52.586;13.284;2024-03-17T11:12:42;101940.31;;;8.23;48.58
85140;BME280;75501;52.586;13.284;2024-03-17T11:18:36;101936.47;;;7.92;49.58
85140;BME280;75501;52.586;13.284;2024-03-17T11:21:06;101931.56;;;8.16;49.77
85140;BME280;75501;52.586;13.284;2024-03-17T11:23:56;101933.75;;;8.40;47.52
85140;BME280;75501;52.586;13.284;2024-03-17T11:26:29;101925.56;;;8.62;46.81
85140;BME280;75501;52.586;13.284;2024-03-17T11:28:59;101930.97;;;8.62;47.63
85140;BME280;75501;52.586;13.284;2024-03-17T11:34:34;101925.81;;;8.61;46.86
85140;BME280;75501;52.586;13.284;2024-03-17T11:37:05;101927.28;;;8.73;47.35
85140;BME280;75501;52.586;13.284;2024-03-17T11:39:49;101925.69;;;8.45;48.29
85140;BME280;75501;52.586;13.284;2024-03-17T11:42:22;101916.94;;;8.38;46.11
85140;BME280;75501;52.586;13.284;2024-03-17T11:44:56;101918.97;;;8.85;45.52
85140;BME280;75501;52.586;13.284;2024-03-17T11:47:33;101912.84;;;8.36;46.38
85140;BME280;75501;52.586;13.284;2024-03-17T11:50:07;101921.41;;;8.28;47.42
85140;BME280;75501;52.586;13.284;2024-03-17T11:52:36;101924.59;;;7.98;47.44
85140;BME280;75501;52.586;13.284;2024-03-17T11:55:04;101925.94;;;8.22;46.56
85140;BME280;75501;52.586;13.284;2024-03-17T11:57:31;101928.78;;;7.84;46.86
85140;BME280;75501;52.586;13.284;2024-03-17T11:59:58;101931.59;;;7.94;46.99
85140;BME280;75501;52.586;13.284;2024-03-17T12:02:27;101933.06;;;8.50;46.13
85140;BME280;75501;52.586;13.284;2024-03-17T12:04:58;101923.53;;;9.16;45.16
85140;BME280;75501;52.586;13.284;2024-03-17T12:07:26;101917.63;;;9.24;43.48
85140;BME280;75501;52.586;13.284;2024-03-17T12:09:55;101927.44;;;9.35;44.25
85140;BME280;75501;52.586;13.284;2024-03-17T12:12:24;101917.22;;;9.58;43.74
85140;BME280;75501;52.586;13.284;2024-03-17T12:15:00;101920.44;;;9.49;43.91
85140;BME280;75501;52.586;13.284;2024-03-17T12:17:29;101917.34;;;9.26;42.61
85140;BME280;75501;52.586;13.284;2024-03-17T12:19:56;101916.22;;;9.17;42.53
85140;BME280;75501;52.586;13.284;2024-03-17T12:22:24;101923.72;;;9.05;42.83
85140;BME280;75501;52.586;13.284;2024-03-17T12:24:53;101921.88;;;9.10;42.26
85140;BME280;75501;52.586;13.284;2024-03-17T12:27:25;101919.22;;;9.25;41.97
85140;BME280;75501;52.586;13.284;2024-03-17T12:29:53;101912.03;;;9.04;41.61
85140;BME280;75501;52.586;13.284;2024-03-17T12:32:23;101912.56;;;9.48;41.49
85140;BME280;75501;52.586;13.284;2024-03-17T12:34:53;101902.41;;;9.28;41.60
85140;BME280;75501;52.586;13.284;2024-03-17T12:37:22;101902.91;;;9.20;42.88
85140;BME280;75501;52.586;13.284;2024-03-17T12:39:50;101887.78;;;10.02;41.75
85140;BME280;75501;52.586;13.284;2024-03-17T12:42:24;101881.06;;;10.34;39.87
85140;BME280;75501;52.586;13.284;2024-03-17T12:44:52;101890.72;;;9.90;41.48
85140;BME280;75501;52.586;13.284;2024-03-17T12:47:21;101890.63;;;9.65;41.95
85140;BME280;75501;52.586;13.284;2024-03-17T12:49:49;101890.19;;;9.93;41.30
85140;BME280;75501;52.586;13.284;2024-03-17T12:52:21;101897.25;;;9.89;41.38
85140;BME280;75501;52.586;13.284;2024-03-17T12:54:58;101894.38;;;10.31;39.71
85140;BME280;75501;52.586;13.284;2024-03-17T12:57:40;101894.69;;;10.34;39.47
85140;BME280;75501;52.586;13.284;2024-03-17T13:00:25;101899.56;;;10.58;38.78
85140;BME280;75501;52.586;13.284;2024-03-17T13:03:00;101894.66;;;10.90;38.57
85140;BME280;75501;52.586;13.284;2024-03-17T13:05:29;101895.47;;;10.95;38.07
85140;BME280;75501;52.586;13.284;2024-03-17T13:07:57;101891.41;;;10.63;39.13